sensor_id;sensor_type;location;lat;lon;timestamp;P1;durP1;ratioP1;P2;durP2;ratioP2
8568;SDS011;4322;51.104;-4.162;2022-08-19T00:01:43;3.00;;;2.90;;
8568;SDS011;4322;51.104;-4.162;2022-08-19T00:04:19;2.60;;;2.50;;
8568;SDS011;4322;51.104;-4.162;2022-08-19T00:06:49;3.07;;;2.97;;
8568;SDS011;4322;51.104;-4.162;2022-08-19T00:09:18;3.10;;;3.00;;
8568;SDS011;4322;51.104;-4.162;2022-08-19T00:11:47;2.93;;;2.83;;
8568;SDS011;4322;51.104;-4.162;2022-08-19T00:14:16;3.20;;;3.10;;
8568;SDS011;4322;51.104;-4.162;2022-08-19T00:16:48;3.20;;;3.10;;
8568;SDS011;4322;51.104;-4.162;2022-08-19T00:19:17;3.10;;;3.00;;
8568;SDS011;4322;51.104;-4.162;2022-08-19T00:21:45;3.10;;;3.00;;
8568;SDS011;4322;51.104;-4.162;2022-08-19T00:24:14;3.33;;;3.23;;
8568;SDS011;4322;51.104;-4.162;2022-08-19T00:26:43;3.50;;;3.40;;
8568;SDS011;4322;51.104;-4.162;2022-08-19T00:29:13;3.30;;;3.20;;
8568;SDS011;4322;51.104;-4.162;2022-08-19T00:31:43;3.33;;;3.23;;
8568;SDS011;4322;51.104;-4.162;2022-08-19T00:34:13;3.50;;;3.40;;
8568;SDS011;4322;51.104;-4.162;2022-08-19T00:36:42;3.50;;;3.40;;
8568;SDS011;4322;51.104;-4.162;2022-08-19T00:39:11;3.40;;;3.30;;
8568;SDS011;4322;51.104;-4.162;2022-08-19T00:41:39;3.27;;;3.17;;
8568;SDS011;4322;51.104;-4.162;2022-08-19T00:44:10;3.90;;;3.80;;
8568;SDS011;4322;51.104;-4.162;2022-08-19T00:46:41;3.50;;;3.40;;
8568;SDS011;4322;51.104;-4.162;2022-08-19T00:49:25;3.60;;;3.50;;
8568;SDS011;4322;51.104;-4.162;2022-08-19T00:52:00;3.73;;;3.63;;
8568;SDS011;4322;51.104;-4.162;2022-08-19T00:54:30;3.90;;;3.80;;
8568;SDS011;4322;51.104;-4.162;2022-08-19T00:56:59;3.80;;;3.70;;
8568;SDS011;4322;51.104;-4.162;2022-08-19T00:59:29;3.40;;;3.30;;
8568;SDS011;4322;51.104;-4.162;2022-08-19T01:02:17;3.50;;;3.40;;
8568;SDS011;4322;51.104;-4.162;2022-08-19T01:04:47;4.03;;;3.83;;
8568;SDS011;4322;51.104;-4.162;2022-08-19T01:07:15;3.70;;;3.60;;
8568;SDS011;4322;51.104;-4.162;2022-08-19T01:09:45;4.20;;;4.00;;
8568;SDS011;4322;51.104;-4.162;2022-08-19T01:12:14;3.80;;;3.70;;
8568;SDS011;4322;51.104;-4.162;2022-08-19T01:14:42;3.80;;;3.70;;
8568;SDS011;4322;51.104;-4.162;2022-08-19T01:17:11;3.60;;;3.50;;
8568;SDS011;4322;51.104;-4.162;2022-08-19T01:19:41;3.60;;;3.50;;
8568;SDS011;4322;51.104;-4.162;2022-08-19T01:22:16;4.27;;;4.07;;
8568;SDS011;4322;51.104;-4.162;2022-08-19T01:24:59;4.17;;;3.97;;
8568;SDS011;4322;51.104;-4.162;2022-08-19T01:27:36;3.40;;;3.30;;
8568;SDS011;4322;51.104;-4.162;2022-08-19T01:30:09;3.40;;;3.30;;
8568;SDS011;4322;51.104;-4.162;2022-08-19T01:32:39;3.63;;;3.53;;
8568;SDS011;4322;51.104;-4.162;2022-08-19T01:35:07;3.27;;;3.17;;
8568;SDS011;4322;51.104;-4.162;2022-08-19T01:37:44;3.30;;;3.20;;
8568;SDS011;4322;51.104;-4.162;2022-08-19T01:40:14;3.10;;;3.00;;
8568;SDS011;4322;51.104;-4.162;2022-08-19T01:42:43;3.10;;;3.00;;
8568;SDS011;4322;51.104;-4.162;2022-08-19T01:45:12;2.90;;;2.80;;
8568;SDS011;4322;51.104;-4.162;2022-08-19T01:47:40;2.77;;;2.67;;
8568;SDS011;4322;51.104;-4.162;2022-08-19T01:50:17;2.60;;;2.50;;
8568;SDS011;4322;51.104;-4.162;2022-08-19T01:52:48;2.90;;;2.80;;
8568;SDS011;4322;51.104;-4.162;2022-08-19T01:55:32;2.80;;;2.70;;
8568;SDS011;4322;51.104;-4.162;2022-08-19T01:58:06;3.30;;;3.20;;
8568;SDS011;4322;51.104;-4.162;2022-08-19T02:00:37;3.10;;;3.00;;
8568;SDS011;4322;51.104;-4.162;2022-08-19T02:03:05;3.20;;;3.10;;
8568;SDS011;4322;51.104;-4.162;2022-08-19T02:05:34;3.50;;;3.40;;
8568;SDS011;4322;51.104;-4.162;2022-08-19T02:08:04;3.30;;;3.20;;
8568;SDS011;4322;51.104;-4.162;2022-08-19T02:10:32;3.30;;;3.20;;
8568;SDS011;4322;51.104;-4.162;2022-08-19T02:13:00;3.30;;;3.20;;
8568;SDS011;4322;51.104;-4.162;2022-08-19T02:15:28;3.20;;;3.10;;
8568;SDS011;4322;51.104;-4.162;2022-08-19T02:17:56;3.30;;;3.20;;
8568;SDS011;4322;51.104;-4.162;2022-08-19T02:20:25;3.13;;;3.03;;
8568;SDS011;4322;51.104;-4.162;2022-08-19T02:22:53;3.20;;;3.10;;
8568;SDS011;4322;51.104;-4.162;2022-08-19T02:25:22;3.00;;;2.90;;
8568;SDS011;4322;51.104;-4.162;2022-08-19T02:27:50;3.10;;;3.00;;
8568;SDS011;4322;51.104;-4.162;2022-08-19T02:30:18;3.37;;;3.27;;
8568;SDS011;4322;51.104;-4.162;2022-08-19T02:32:47;3.17;;;3.07;;
8568;SDS011;4322;51.104;-4.162;2022-08-19T02:35:15;3.10;;;3.00;;
8568;SDS011;4322;51.104;-4.162;2022-08-19T02:37:43;2.90;;;2.80;;
8568;SDS011;4322;51.104;-4.162;2022-08-19T02:40:30;3.10;;;3.00;;
8568;SDS011;4322;51.104;-4.162;2022-08-19T02:43:00;2.93;;;2.83;;
8568;SDS011;4322;51.104;-4.162;2022-08-19T02:45:31;3.20;;;3.10;;
8568;SDS011;4322;51.104;-4.162;2022-08-19T02:47:59;3.20;;;3.10;;
8568;SDS011;4322;51.104;-4.162;2022-08-19T02:50:30;2.60;;;2.50;;
8568;SDS011;4322;51.104;-4.162;2022-08-19T02:52:59;2.60;;;2.50;;
8568;SDS011;4322;51.104;-4.162;2022-08-19T02:55:27;2.40;;;2.30;;
8568;SDS011;4322;51.104;-4.162;2022-08-19T02:57:56;2.50;;;2.40;;
8568;SDS011;4322;51.104;-4.162;2022-08-19T03:00:26;2.60;;;2.50;;
8568;SDS011;4322;51.104;-4.162;2022-08-19T03:02:54;2.60;;;2.50;;
8568;SDS011;4322;51.104;-4.162;2022-08-19T03:05:22;2.57;;;2.47;;
8568;SDS011;4322;51.104;-4.162;2022-08-19T03:08:11;2.33;;;2.23;;
8568;SDS011;4322;51.104;-4.162;2022-08-19T03:10:41;2.27;;;2.17;;
8568;SDS011;4322;51.104;-4.162;2022-08-19T03:13:13;2.23;;;2.13;;
8568;SDS011;4322;51.104;-4.162;2022-08-19T03:15:45;2.50;;;2.40;;
8568;SDS011;4322;51.104;-4.162;2022-08-19T03:18:15;2.43;;;2.33;;
8568;SDS011;4322;51.104;-4.162;2022-08-19T03:20:44;2.50;;;2.40;;
8568;SDS011;4322;51.104;-4.162;2022-08-19T03:23:13;2.50;;;2.40;;
8568;SDS011;4322;51.104;-4.162;2022-08-19T03:25:44;2.10;;;2.07;;
8568;SDS011;4322;51.104;-4.162;2022-08-19T03:28:34;2.37;;;2.27;;
8568;SDS011;4322;51.104;-4.162;2022-08-19T03:31:03;2.70;;;2.60;;
8568;SDS011;4322;51.104;-4.162;2022-08-19T03:33:54;2.50;;;2.40;;
8568;SDS011;4322;51.104;-4.162;2022-08-19T03:36:23;2.40;;;2.30;;
8568;SDS011;4322;51.104;-4.162;2022-08-19T03:38:55;2.30;;;2.20;;
8568;SDS011;4322;51.104;-4.162;2022-08-19T03:41:26;1.90;;;1.90;;
8568;SDS011;4322;51.104;-4.162;2022-08-19T03:44:11;2.07;;;2.07;;
8568;SDS011;4322;51.104;-4.162;2022-08-19T03:46:44;2.10;;;2.10;;
8568;SDS011;4322;51.104;-4.162;2022-08-19T03:49:13;1.90;;;1.90;;
8568;SDS011;4322;51.104;-4.162;2022-08-19T03:51:44;1.83;;;1.83;;
8568;SDS011;4322;51.104;-4.162;2022-08-19T03:54:14;1.77;;;1.77;;
8568;SDS011;4322;51.104;-4.162;2022-08-19T03:56:44;1.90;;;1.90;;
8568;SDS011;4322;51.104;-4.162;2022-08-19T03:59:16;1.80;;;1.80;;
8568;SDS011;4322;51.104;-4.162;2022-08-19T04:01:46;1.90;;;1.90;;
8568;SDS011;4322;51.104;-4.162;2022-08-19T04:04:14;1.77;;;1.77;;
8568;SDS011;4322;51.104;-4.162;2022-08-19T04:06:45;1.70;;;1.70;;
8568;SDS011;4322;51.104;-4.162;2022-08-19T04:09:13;1.70;;;1.70;;
8568;SDS011;4322;51.104;-4.162;2022-08-19T04:11:43;1.77;;;1.77;;
8568;SDS011;4322;51.104;-4.162;2022-08-19T04:14:13;1.80;;;1.80;;
8568;SDS011;4322;51.104;-4.162;2022-08-19T04:16:45;1.80;;;1.80;;
8568;SDS011;4322;51.104;-4.162;2022-08-19T04:19:14;1.70;;;1.70;;
8568;SDS011;4322;51.104;-4.162;2022-08-19T04:21:46;2.27;;;2.17;;
8568;SDS011;4322;51.104;-4.162;2022-08-19T04:24:15;2.23;;;2.13;;
8568;SDS011;4322;51.104;-4.162;2022-08-19T04:26:44;1.37;;;1.37;;
8568;SDS011;4322;51.104;-4.162;2022-08-19T04:29:13;1.00;;;1.00;;
8568;SDS011;4322;51.104;-4.162;2022-08-19T04:31:44;1.70;;;1.70;;
8568;SDS011;4322;51.104;-4.162;2022-08-19T04:34:14;1.43;;;1.43;;
8568;SDS011;4322;51.104;-4.162;2022-08-19T04:36:44;1.30;;;1.30;;
8568;SDS011;4322;51.104;-4.162;2022-08-19T04:39:13;1.50;;;1.50;;
8568;SDS011;4322;51.104;-4.162;2022-08-19T04:41:43;1.20;;;1.20;;
8568;SDS011;4322;51.104;-4.162;2022-08-19T04:44:31;1.67;;;1.67;;
8568;SDS011;4322;51.104;-4.162;2022-08-19T04:47:01;2.20;;;2.10;;
8568;SDS011;4322;51.104;-4.162;2022-08-19T04:49:36;2.63;;;2.53;;
8568;SDS011;4322;51.104;-4.162;2022-08-19T04:52:05;2.00;;;2.00;;
8568;SDS011;4322;51.104;-4.162;2022-08-19T04:54:34;1.43;;;1.43;;
8568;SDS011;4322;51.104;-4.162;2022-08-19T04:57:06;1.50;;;1.50;;
8568;SDS011;4322;51.104;-4.162;2022-08-19T04:59:38;1.60;;;1.60;;
8568;SDS011;4322;51.104;-4.162;2022-08-19T05:02:06;1.30;;;1.30;;
8568;SDS011;4322;51.104;-4.162;2022-08-19T05:04:36;1.30;;;1.30;;
8568;SDS011;4322;51.104;-4.162;2022-08-19T05:07:05;1.83;;;1.83;;
8568;SDS011;4322;51.104;-4.162;2022-08-19T05:09:34;1.40;;;1.40;;
8568;SDS011;4322;51.104;-4.162;2022-08-19T05:12:23;1.30;;;1.30;;
8568;SDS011;4322;51.104;-4.162;2022-08-19T05:14:56;1.17;;;1.17;;
8568;SDS011;4322;51.104;-4.162;2022-08-19T05:17:24;1.10;;;1.10;;
8568;SDS011;4322;51.104;-4.162;2022-08-19T05:19:58;1.50;;;1.50;;
8568;SDS011;4322;51.104;-4.162;2022-08-19T05:22:44;1.30;;;1.30;;
8568;SDS011;4322;51.104;-4.162;2022-08-19T05:25:15;1.20;;;1.20;;
8568;SDS011;4322;51.104;-4.162;2022-08-19T05:27:46;1.67;;;1.67;;
8568;SDS011;4322;51.104;-4.162;2022-08-19T05:30:16;1.00;;;1.00;;
8568;SDS011;4322;51.104;-4.162;2022-08-19T05:33:04;1.30;;;1.30;;
8568;SDS011;4322;51.104;-4.162;2022-08-19T05:35:35;1.50;;;1.50;;
8568;SDS011;4322;51.104;-4.162;2022-08-19T05:38:03;1.30;;;1.30;;
8568;SDS011;4322;51.104;-4.162;2022-08-19T05:40:33;1.30;;;1.30;;
8568;SDS011;4322;51.104;-4.162;2022-08-19T05:43:02;1.30;;;1.30;;
8568;SDS011;4322;51.104;-4.162;2022-08-19T05:45:32;1.53;;;1.53;;
8568;SDS011;4322;51.104;-4.162;2022-08-19T05:48:05;1.30;;;1.30;;
8568;SDS011;4322;51.104;-4.162;2022-08-19T05:50:34;1.50;;;1.50;;
8568;SDS011;4322;51.104;-4.162;2022-08-19T05:53:03;1.53;;;1.53;;
8568;SDS011;4322;51.104;-4.162;2022-08-19T05:55:31;1.50;;;1.50;;
8568;SDS011;4322;51.104;-4.162;2022-08-19T05:57:59;2.20;;;2.10;;
8568;SDS011;4322;51.104;-4.162;2022-08-19T06:00:28;1.50;;;1.50;;
8568;SDS011;4322;51.104;-4.162;2022-08-19T06:02:58;1.30;;;1.30;;
8568;SDS011;4322;51.104;-4.162;2022-08-19T06:05:38;1.70;;;1.70;;
8568;SDS011;4322;51.104;-4.162;2022-08-19T06:08:16;1.67;;;1.67;;
8568;SDS011;4322;51.104;-4.162;2022-08-19T06:10:45;2.77;;;2.67;;
8568;SDS011;4322;51.104;-4.162;2022-08-19T06:13:12;1.80;;;1.80;;
8568;SDS011;4322;51.104;-4.162;2022-08-19T06:15:41;1.50;;;1.50;;
8568;SDS011;4322;51.104;-4.162;2022-08-19T06:18:12;1.40;;;1.40;;
8568;SDS011;4322;51.104;-4.162;2022-08-19T06:20:40;1.40;;;1.40;;
8568;SDS011;4322;51.104;-4.162;2022-08-19T06:23:28;1.43;;;1.43;;
8568;SDS011;4322;51.104;-4.162;2022-08-19T06:25:57;1.50;;;1.50;;
8568;SDS011;4322;51.104;-4.162;2022-08-19T06:28:24;1.40;;;1.40;;
8568;SDS011;4322;51.104;-4.162;2022-08-19T06:30:52;1.40;;;1.40;;
8568;SDS011;4322;51.104;-4.162;2022-08-19T06:33:22;1.70;;;1.70;;
8568;SDS011;4322;51.104;-4.162;2022-08-19T06:35:50;2.10;;;2.10;;
8568;SDS011;4322;51.104;-4.162;2022-08-19T06:38:18;1.80;;;1.80;;
8568;SDS011;4322;51.104;-4.162;2022-08-19T06:40:49;1.47;;;1.47;;
8568;SDS011;4322;51.104;-4.162;2022-08-19T06:43:17;1.13;;;1.13;;
8568;SDS011;4322;51.104;-4.162;2022-08-19T06:45:53;2.10;;;2.10;;
8568;SDS011;4322;51.104;-4.162;2022-08-19T06:48:23;1.67;;;1.67;;
8568;SDS011;4322;51.104;-4.162;2022-08-19T06:50:51;1.40;;;1.40;;
8568;SDS011;4322;51.104;-4.162;2022-08-19T06:53:19;1.20;;;1.20;;
8568;SDS011;4322;51.104;-4.162;2022-08-19T06:55:48;1.60;;;1.60;;
8568;SDS011;4322;51.104;-4.162;2022-08-19T06:58:26;1.77;;;1.77;;
8568;SDS011;4322;51.104;-4.162;2022-08-19T07:00:57;1.63;;;1.63;;
8568;SDS011;4322;51.104;-4.162;2022-08-19T07:03:41;1.50;;;1.50;;
8568;SDS011;4322;51.104;-4.162;2022-08-19T07:06:10;1.90;;;1.90;;
8568;SDS011;4322;51.104;-4.162;2022-08-19T07:09:01;1.57;;;1.57;;
8568;SDS011;4322;51.104;-4.162;2022-08-19T07:11:31;1.70;;;1.70;;
8568;SDS011;4322;51.104;-4.162;2022-08-19T07:13:59;1.50;;;1.50;;
8568;SDS011;4322;51.104;-4.162;2022-08-19T07:16:28;1.20;;;1.20;;
8568;SDS011;4322;51.104;-4.162;2022-08-19T07:18:58;1.60;;;1.60;;
8568;SDS011;4322;51.104;-4.162;2022-08-19T07:21:41;1.63;;;1.63;;
8568;SDS011;4322;51.104;-4.162;2022-08-19T07:24:10;1.60;;;1.60;;
8568;SDS011;4322;51.104;-4.162;2022-08-19T07:26:39;1.40;;;1.40;;
8568;SDS011;4322;51.104;-4.162;2022-08-19T07:29:09;1.47;;;1.47;;
8568;SDS011;4322;51.104;-4.162;2022-08-19T07:31:39;1.30;;;1.30;;
8568;SDS011;4322;51.104;-4.162;2022-08-19T07:34:11;1.33;;;1.33;;
8568;SDS011;4322;51.104;-4.162;2022-08-19T07:36:41;1.50;;;1.50;;
8568;SDS011;4322;51.104;-4.162;2022-08-19T07:39:11;0.90;;;0.90;;
8568;SDS011;4322;51.104;-4.162;2022-08-19T07:41:41;1.50;;;1.50;;
8568;SDS011;4322;51.104;-4.162;2022-08-19T07:44:10;1.20;;;1.20;;
8568;SDS011;4322;51.104;-4.162;2022-08-19T07:46:40;1.13;;;1.13;;
8568;SDS011;4322;51.104;-4.162;2022-08-19T07:49:14;1.00;;;1.00;;
8568;SDS011;4322;51.104;-4.162;2022-08-19T07:51:45;1.03;;;1.03;;
8568;SDS011;4322;51.104;-4.162;2022-08-19T07:54:15;1.50;;;1.50;;
8568;SDS011;4322;51.104;-4.162;2022-08-19T07:56:43;1.40;;;1.40;;
8568;SDS011;4322;51.104;-4.162;2022-08-19T07:59:12;2.00;;;2.00;;
8568;SDS011;4322;51.104;-4.162;2022-08-19T08:01:40;1.00;;;1.00;;
8568;SDS011;4322;51.104;-4.162;2022-08-19T08:04:08;1.37;;;1.37;;
8568;SDS011;4322;51.104;-4.162;2022-08-19T08:06:55;1.30;;;1.30;;
8568;SDS011;4322;51.104;-4.162;2022-08-19T08:09:41;1.50;;;1.50;;
8568;SDS011;4322;51.104;-4.162;2022-08-19T08:12:16;1.10;;;1.10;;
8568;SDS011;4322;51.104;-4.162;2022-08-19T08:15:00;1.30;;;1.30;;
8568;SDS011;4322;51.104;-4.162;2022-08-19T08:17:34;1.40;;;1.40;;
8568;SDS011;4322;51.104;-4.162;2022-08-19T08:20:16;1.30;;;1.30;;
8568;SDS011;4322;51.104;-4.162;2022-08-19T08:22:47;1.20;;;1.20;;
8568;SDS011;4322;51.104;-4.162;2022-08-19T08:25:32;1.23;;;1.23;;
8568;SDS011;4322;51.104;-4.162;2022-08-19T08:28:02;0.70;;;0.70;;
8568;SDS011;4322;51.104;-4.162;2022-08-19T08:30:31;1.00;;;1.00;;
8568;SDS011;4322;51.104;-4.162;2022-08-19T08:33:02;1.20;;;1.20;;
8568;SDS011;4322;51.104;-4.162;2022-08-19T08:35:31;0.80;;;0.80;;
8568;SDS011;4322;51.104;-4.162;2022-08-19T08:38:01;0.77;;;0.77;;
8568;SDS011;4322;51.104;-4.162;2022-08-19T08:40:33;1.03;;;1.03;;
8568;SDS011;4322;51.104;-4.162;2022-08-19T08:43:07;1.50;;;1.50;;
8568;SDS011;4322;51.104;-4.162;2022-08-19T08:45:50;0.90;;;0.90;;
8568;SDS011;4322;51.104;-4.162;2022-08-19T08:48:24;1.20;;;1.20;;
8568;SDS011;4322;51.104;-4.162;2022-08-19T08:51:02;1.10;;;1.10;;
8568;SDS011;4322;51.104;-4.162;2022-08-19T08:53:36;0.80;;;0.80;;
8568;SDS011;4322;51.104;-4.162;2022-08-19T08:56:07;0.80;;;0.80;;
8568;SDS011;4322;51.104;-4.162;2022-08-19T08:58:49;0.57;;;0.57;;
8568;SDS011;4322;51.104;-4.162;2022-08-19T09:01:23;0.77;;;0.77;;
8568;SDS011;4322;51.104;-4.162;2022-08-19T09:03:56;2.00;;;2.00;;
8568;SDS011;4322;51.104;-4.162;2022-08-19T09:06:29;0.90;;;0.90;;
8568;SDS011;4322;51.104;-4.162;2022-08-19T09:09:10;0.70;;;0.70;;
8568;SDS011;4322;51.104;-4.162;2022-08-19T09:11:52;0.73;;;0.73;;
8568;SDS011;4322;51.104;-4.162;2022-08-19T09:14:32;0.60;;;0.60;;
8568;SDS011;4322;51.104;-4.162;2022-08-19T09:17:17;0.57;;;0.57;;
8568;SDS011;4322;51.104;-4.162;2022-08-19T09:19:51;0.50;;;0.50;;
8568;SDS011;4322;51.104;-4.162;2022-08-19T09:22:21;0.60;;;0.60;;
8568;SDS011;4322;51.104;-4.162;2022-08-19T09:24:54;0.80;;;0.80;;
8568;SDS011;4322;51.104;-4.162;2022-08-19T09:27:22;0.53;;;0.53;;
8568;SDS011;4322;51.104;-4.162;2022-08-19T09:30:09;0.70;;;0.70;;
8568;SDS011;4322;51.104;-4.162;2022-08-19T09:32:39;0.60;;;0.60;;
8568;SDS011;4322;51.104;-4.162;2022-08-19T09:35:09;0.50;;;0.50;;
8568;SDS011;4322;51.104;-4.162;2022-08-19T09:37:39;0.60;;;0.60;;
8568;SDS011;4322;51.104;-4.162;2022-08-19T09:40:10;0.60;;;0.60;;
8568;SDS011;4322;51.104;-4.162;2022-08-19T09:42:40;0.50;;;0.50;;
8568;SDS011;4322;51.104;-4.162;2022-08-19T09:45:17;0.70;;;0.70;;
8568;SDS011;4322;51.104;-4.162;2022-08-19T09:47:47;0.50;;;0.50;;
8568;SDS011;4322;51.104;-4.162;2022-08-19T09:50:15;0.60;;;0.60;;
8568;SDS011;4322;51.104;-4.162;2022-08-19T09:52:44;0.60;;;0.60;;
8568;SDS011;4322;51.104;-4.162;2022-08-19T09:55:24;0.70;;;0.70;;
8568;SDS011;4322;51.104;-4.162;2022-08-19T09:58:01;0.70;;;0.70;;
8568;SDS011;4322;51.104;-4.162;2022-08-19T10:00:29;0.90;;;0.90;;
8568;SDS011;4322;51.104;-4.162;2022-08-19T10:02:58;1.00;;;1.00;;
8568;SDS011;4322;51.104;-4.162;2022-08-19T10:05:28;1.10;;;1.10;;
8568;SDS011;4322;51.104;-4.162;2022-08-19T10:08:15;1.10;;;1.10;;
8568;SDS011;4322;51.104;-4.162;2022-08-19T10:10:47;1.33;;;1.33;;
8568;SDS011;4322;51.104;-4.162;2022-08-19T10:13:17;1.30;;;1.30;;
8568;SDS011;4322;51.104;-4.162;2022-08-19T10:15:52;1.17;;;1.17;;
8568;SDS011;4322;51.104;-4.162;2022-08-19T10:18:23;1.40;;;1.40;;
8568;SDS011;4322;51.104;-4.162;2022-08-19T10:20:52;1.30;;;1.30;;
8568;SDS011;4322;51.104;-4.162;2022-08-19T10:23:29;1.30;;;1.30;;
8568;SDS011;4322;51.104;-4.162;2022-08-19T10:26:02;1.50;;;1.50;;
8568;SDS011;4322;51.104;-4.162;2022-08-19T10:28:32;1.37;;;1.37;;
8568;SDS011;4322;51.104;-4.162;2022-08-19T10:31:04;1.60;;;1.60;;
8568;SDS011;4322;51.104;-4.162;2022-08-19T10:33:33;1.60;;;1.60;;
8568;SDS011;4322;51.104;-4.162;2022-08-19T10:36:20;1.60;;;1.60;;
8568;SDS011;4322;51.104;-4.162;2022-08-19T10:38:50;1.50;;;1.50;;
8568;SDS011;4322;51.104;-4.162;2022-08-19T10:41:25;1.40;;;1.40;;
8568;SDS011;4322;51.104;-4.162;2022-08-19T10:43:56;1.30;;;1.30;;
8568;SDS011;4322;51.104;-4.162;2022-08-19T10:46:29;1.40;;;1.40;;
8568;SDS011;4322;51.104;-4.162;2022-08-19T10:49:04;1.20;;;1.20;;
8568;SDS011;4322;51.104;-4.162;2022-08-19T10:51:33;1.50;;;1.50;;
8568;SDS011;4322;51.104;-4.162;2022-08-19T10:54:18;1.30;;;1.30;;
8568;SDS011;4322;51.104;-4.162;2022-08-19T10:57:01;1.43;;;1.43;;
8568;SDS011;4322;51.104;-4.162;2022-08-19T10:59:28;1.40;;;1.40;;
8568;SDS011;4322;51.104;-4.162;2022-08-19T11:02:02;1.40;;;1.40;;
8568;SDS011;4322;51.104;-4.162;2022-08-19T11:04:32;1.40;;;1.40;;
8568;SDS011;4322;51.104;-4.162;2022-08-19T11:07:01;1.30;;;1.30;;
8568;SDS011;4322;51.104;-4.162;2022-08-19T11:09:30;1.50;;;1.50;;
8568;SDS011;4322;51.104;-4.162;2022-08-19T11:12:01;1.10;;;1.10;;
8568;SDS011;4322;51.104;-4.162;2022-08-19T11:14:30;1.10;;;1.10;;
8568;SDS011;4322;51.104;-4.162;2022-08-19T11:16:59;1.00;;;1.00;;
8568;SDS011;4322;51.104;-4.162;2022-08-19T11:19:28;1.03;;;1.03;;
8568;SDS011;4322;51.104;-4.162;2022-08-19T11:21:56;1.10;;;1.10;;
8568;SDS011;4322;51.104;-4.162;2022-08-19T11:24:29;1.00;;;1.00;;
8568;SDS011;4322;51.104;-4.162;2022-08-19T11:27:04;1.20;;;1.20;;
8568;SDS011;4322;51.104;-4.162;2022-08-19T11:29:33;1.10;;;1.10;;
8568;SDS011;4322;51.104;-4.162;2022-08-19T11:32:03;1.17;;;1.17;;
8568;SDS011;4322;51.104;-4.162;2022-08-19T11:34:32;1.30;;;1.30;;
8568;SDS011;4322;51.104;-4.162;2022-08-19T11:37:01;1.10;;;1.10;;
8568;SDS011;4322;51.104;-4.162;2022-08-19T11:39:32;1.10;;;1.10;;
8568;SDS011;4322;51.104;-4.162;2022-08-19T11:42:02;1.17;;;1.17;;
8568;SDS011;4322;51.104;-4.162;2022-08-19T11:45:10;1.20;;;1.20;;
8568;SDS011;4322;51.104;-4.162;2022-08-19T11:47:40;1.20;;;1.20;;
8568;SDS011;4322;51.104;-4.162;2022-08-19T11:50:08;1.30;;;1.30;;
8568;SDS011;4322;51.104;-4.162;2022-08-19T11:52:36;1.30;;;1.30;;
8568;SDS011;4322;51.104;-4.162;2022-08-19T11:55:05;1.40;;;1.40;;
8568;SDS011;4322;51.104;-4.162;2022-08-19T11:57:35;1.20;;;1.20;;
8568;SDS011;4322;51.104;-4.162;2022-08-19T12:00:04;1.23;;;1.23;;
8568;SDS011;4322;51.104;-4.162;2022-08-19T12:02:33;1.30;;;1.30;;
8568;SDS011;4322;51.104;-4.162;2022-08-19T12:05:03;1.30;;;1.30;;
8568;SDS011;4322;51.104;-4.162;2022-08-19T12:07:37;1.40;;;1.40;;
8568;SDS011;4322;51.104;-4.162;2022-08-19T12:10:06;1.40;;;1.40;;
8568;SDS011;4322;51.104;-4.162;2022-08-19T12:12:37;1.40;;;1.40;;
8568;SDS011;4322;51.104;-4.162;2022-08-19T12:15:09;1.33;;;1.33;;
8568;SDS011;4322;51.104;-4.162;2022-08-19T12:17:38;1.40;;;1.40;;
8568;SDS011;4322;51.104;-4.162;2022-08-19T12:20:07;1.30;;;1.30;;
8568;SDS011;4322;51.104;-4.162;2022-08-19T12:22:36;1.40;;;1.40;;
8568;SDS011;4322;51.104;-4.162;2022-08-19T12:25:05;1.20;;;1.20;;
8568;SDS011;4322;51.104;-4.162;2022-08-19T12:27:38;1.30;;;1.30;;
8568;SDS011;4322;51.104;-4.162;2022-08-19T12:30:18;1.30;;;1.30;;
8568;SDS011;4322;51.104;-4.162;2022-08-19T12:32:46;1.27;;;1.27;;
8568;SDS011;4322;51.104;-4.162;2022-08-19T12:35:14;1.30;;;1.30;;
8568;SDS011;4322;51.104;-4.162;2022-08-19T12:37:42;1.30;;;1.30;;
8568;SDS011;4322;51.104;-4.162;2022-08-19T12:40:22;1.50;;;1.50;;
8568;SDS011;4322;51.104;-4.162;2022-08-19T12:42:53;1.27;;;1.27;;
8568;SDS011;4322;51.104;-4.162;2022-08-19T12:45:21;1.40;;;1.40;;
8568;SDS011;4322;51.104;-4.162;2022-08-19T12:47:49;1.47;;;1.47;;
8568;SDS011;4322;51.104;-4.162;2022-08-19T12:50:20;1.50;;;1.50;;
8568;SDS011;4322;51.104;-4.162;2022-08-19T12:52:48;1.30;;;1.30;;
8568;SDS011;4322;51.104;-4.162;2022-08-19T12:55:17;1.40;;;1.40;;
8568;SDS011;4322;51.104;-4.162;2022-08-19T12:57:45;1.30;;;1.30;;
8568;SDS011;4322;51.104;-4.162;2022-08-19T13:00:17;1.20;;;1.20;;
8568;SDS011;4322;51.104;-4.162;2022-08-19T13:02:49;1.40;;;1.40;;
8568;SDS011;4322;51.104;-4.162;2022-08-19T13:05:19;1.30;;;1.30;;
8568;SDS011;4322;51.104;-4.162;2022-08-19T13:07:50;1.30;;;1.30;;
8568;SDS011;4322;51.104;-4.162;2022-08-19T13:10:28;1.30;;;1.30;;
8568;SDS011;4322;51.104;-4.162;2022-08-19T13:13:01;1.47;;;1.47;;
8568;SDS011;4322;51.104;-4.162;2022-08-19T13:15:34;1.40;;;1.40;;
8568;SDS011;4322;51.104;-4.162;2022-08-19T13:18:03;1.40;;;1.40;;
8568;SDS011;4322;51.104;-4.162;2022-08-19T13:20:31;1.47;;;1.47;;
8568;SDS011;4322;51.104;-4.162;2022-08-19T13:23:01;1.30;;;1.30;;
8568;SDS011;4322;51.104;-4.162;2022-08-19T13:25:30;1.50;;;1.50;;
8568;SDS011;4322;51.104;-4.162;2022-08-19T13:27:58;1.50;;;1.50;;
8568;SDS011;4322;51.104;-4.162;2022-08-19T13:30:26;1.50;;;1.50;;
8568;SDS011;4322;51.104;-4.162;2022-08-19T13:33:14;1.57;;;1.57;;
8568;SDS011;4322;51.104;-4.162;2022-08-19T13:35:43;1.50;;;1.50;;
8568;SDS011;4322;51.104;-4.162;2022-08-19T13:38:13;1.50;;;1.50;;
8568;SDS011;4322;51.104;-4.162;2022-08-19T13:40:42;1.40;;;1.40;;
8568;SDS011;4322;51.104;-4.162;2022-08-19T13:43:10;1.73;;;1.73;;
8568;SDS011;4322;51.104;-4.162;2022-08-19T13:45:49;1.60;;;1.60;;
8568;SDS011;4322;51.104;-4.162;2022-08-19T13:48:20;1.50;;;1.50;;
8568;SDS011;4322;51.104;-4.162;2022-08-19T13:50:49;1.50;;;1.50;;
8568;SDS011;4322;51.104;-4.162;2022-08-19T13:53:18;1.43;;;1.43;;
8568;SDS011;4322;51.104;-4.162;2022-08-19T13:55:46;1.40;;;1.40;;
8568;SDS011;4322;51.104;-4.162;2022-08-19T13:58:14;1.60;;;1.60;;
8568;SDS011;4322;51.104;-4.162;2022-08-19T14:00:42;1.40;;;1.40;;
8568;SDS011;4322;51.104;-4.162;2022-08-19T14:03:12;1.50;;;1.50;;
8568;SDS011;4322;51.104;-4.162;2022-08-19T14:05:41;1.50;;;1.50;;
8568;SDS011;4322;51.104;-4.162;2022-08-19T14:08:09;1.60;;;1.60;;
8568;SDS011;4322;51.104;-4.162;2022-08-19T14:10:40;1.63;;;1.63;;
8568;SDS011;4322;51.104;-4.162;2022-08-19T14:13:12;1.30;;;1.30;;
8568;SDS011;4322;51.104;-4.162;2022-08-19T14:15:42;1.30;;;1.30;;
8568;SDS011;4322;51.104;-4.162;2022-08-19T14:18:10;1.40;;;1.40;;
8568;SDS011;4322;51.104;-4.162;2022-08-19T14:20:38;1.40;;;1.40;;
8568;SDS011;4322;51.104;-4.162;2022-08-19T14:23:07;1.37;;;1.37;;
8568;SDS011;4322;51.104;-4.162;2022-08-19T14:25:36;1.50;;;1.50;;
8568;SDS011;4322;51.104;-4.162;2022-08-19T14:28:04;1.40;;;1.40;;
8568;SDS011;4322;51.104;-4.162;2022-08-19T14:30:34;1.43;;;1.43;;
8568;SDS011;4322;51.104;-4.162;2022-08-19T14:33:03;1.33;;;1.33;;
8568;SDS011;4322;51.104;-4.162;2022-08-19T14:35:33;1.57;;;1.57;;
8568;SDS011;4322;51.104;-4.162;2022-08-19T14:38:02;1.40;;;1.40;;
8568;SDS011;4322;51.104;-4.162;2022-08-19T14:40:32;1.70;;;1.70;;
8568;SDS011;4322;51.104;-4.162;2022-08-19T14:43:01;1.40;;;1.40;;
8568;SDS011;4322;51.104;-4.162;2022-08-19T14:45:32;1.40;;;1.40;;
8568;SDS011;4322;51.104;-4.162;2022-08-19T14:48:02;1.37;;;1.37;;
8568;SDS011;4322;51.104;-4.162;2022-08-19T14:50:30;1.40;;;1.40;;
8568;SDS011;4322;51.104;-4.162;2022-08-19T14:52:59;1.53;;;1.53;;
8568;SDS011;4322;51.104;-4.162;2022-08-19T14:55:40;1.30;;;1.30;;
8568;SDS011;4322;51.104;-4.162;2022-08-19T14:58:08;1.40;;;1.40;;
8568;SDS011;4322;51.104;-4.162;2022-08-19T15:00:55;1.40;;;1.40;;
8568;SDS011;4322;51.104;-4.162;2022-08-19T15:03:25;1.50;;;1.50;;
8568;SDS011;4322;51.104;-4.162;2022-08-19T15:05:53;1.60;;;1.60;;
8568;SDS011;4322;51.104;-4.162;2022-08-19T15:08:24;1.57;;;1.57;;
8568;SDS011;4322;51.104;-4.162;2022-08-19T15:10:54;1.60;;;1.60;;
8568;SDS011;4322;51.104;-4.162;2022-08-19T15:13:23;1.60;;;1.60;;
8568;SDS011;4322;51.104;-4.162;2022-08-19T15:15:52;1.60;;;1.60;;
8568;SDS011;4322;51.104;-4.162;2022-08-19T15:18:21;1.30;;;1.30;;
8568;SDS011;4322;51.104;-4.162;2022-08-19T15:20:49;1.50;;;1.50;;
8568;SDS011;4322;51.104;-4.162;2022-08-19T15:23:18;1.50;;;1.50;;
8568;SDS011;4322;51.104;-4.162;2022-08-19T15:25:47;1.40;;;1.40;;
8568;SDS011;4322;51.104;-4.162;2022-08-19T15:28:19;1.30;;;1.30;;